Time;durP1;ratioP1;P1;durP2;ratioP2;P2;SDS_P1;SDS_P2;PMS_P1;PMS_P2;Temp;Humidity;BMP_temperature;BMP_pressure;BME280_temperature;BME280_humidity;BME280_pressure;Samples;Min_cycle;Max_cycle;Signal;HPM_P1;HPM_P2
2022/03/10 00:00:14;;;;;;;11.37;5.77;;;;;;;-1.84;94.91;99734.34;5095308;28;20475;-67
2022/03/10 00:02:43;;;;;;;9.43;5.13;;;;;;;-1.83;94.56;99731.00;5096612;28;20447;-59
2022/03/10 00:05:12;;;;;;;11.50;5.30;;;;;;;-1.87;94.42;99732.69;5097827;28;20475;-59
2022/03/10 00:07:39;;;;;;;9.80;5.40;;;;;;;-1.86;94.56;99736.88;5097205;28;20870;-66
2022/03/10 00:10:07;;;;;;;10.13;5.30;;;;;;;-1.95;93.88;99733.63;5098507;28;20475;-59
2022/03/10 00:12:34;;;;;;;10.33;5.10;;;;;;;-1.94;93.60;99740.31;5098257;28;20512;-59
2022/03/10 00:15:03;;;;;;;10.97;5.50;;;;;;;-1.98;93.36;99741.19;5096479;28;21048;-59
2022/03/10 00:17:30;;;;;;;13.80;5.00;;;;;;;-2.00;93.79;99740.38;5096766;28;20511;-58
2022/03/10 00:19:59;;;;;;;9.53;5.60;;;;;;;-1.98;93.94;99731.16;5099153;28;20900;-59
2022/03/10 00:22:26;;;;;;;10.57;5.50;;;;;;;-1.92;93.63;99728.59;5098316;28;20452;-66
2022/03/10 00:24:54;;;;;;;10.43;5.67;;;;;;;-1.93;92.66;99730.25;5097710;28;20471;-66
2022/03/10 00:27:21;;;;;;;9.93;5.60;;;;;;;-2.02;92.83;99735.38;5098695;28;20452;-65
2022/03/10 00:29:48;;;;;;;9.73;4.97;;;;;;;-2.06;93.21;99734.59;5097947;28;20479;-65
2022/03/10 00:32:15;;;;;;;10.97;6.00;;;;;;;-2.02;93.02;99729.53;5096374;28;20444;-65
2022/03/10 00:34:42;;;;;;;9.57;5.40;;;;;;;-2.09;93.19;99724.59;5096949;28;20483;-59
2022/03/10 00:37:11;;;;;;;10.60;5.50;;;;;;;-2.32;93.34;99729.84;5098486;28;20452;-58
2022/03/10 00:39:37;;;;;;;9.40;5.33;;;;;;;-2.63;93.67;99731.78;5097765;28;20462;-66
2022/03/10 00:42:05;;;;;;;10.53;5.10;;;;;;;-2.59;93.91;99728.44;5097118;28;20988;-66
2022/03/10 00:44:33;;;;;;;10.73;5.70;;;;;;;-2.69;94.18;99731.00;5099165;28;20467;-58
2022/03/10 00:47:00;;;;;;;9.73;5.20;;;;;;;-2.63;94.57;99720.94;5098439;28;20450;-59
2022/03/10 00:49:27;;;;;;;11.03;5.53;;;;;;;-2.64;94.72;99725.13;5098233;28;20458;-58
2022/03/10 00:51:54;;;;;;;8.87;5.53;;;;;;;-2.63;94.87;99725.94;5098473;28;20444;-59
2022/03/10 00:54:22;;;;;;;9.53;5.40;;;;;;;-2.53;95.11;99718.34;5098196;28;20464;-60
2022/03/10 00:56:49;;;;;;;11.43;5.33;;;;;;;-2.57;95.49;99716.69;5098039;28;20463;-60
2022/03/10 00:59:16;;;;;;;11.43;6.07;;;;;;;-2.63;95.75;99724.28;5096440;28;20498;-66
2022/03/10 01:01:43;;;;;;;9.17;5.43;;;;;;;-2.54;96.21;99724.19;5095086;28;20798;-66
2022/03/10 01:04:10;;;;;;;11.87;6.10;;;;;;;-2.52;96.20;99720.00;5095549;28;20456;-66
2022/03/10 01:06:39;;;;;;;12.63;5.77;;;;;;;-2.51;96.30;99724.16;5095358;28;20483;-58
2022/03/10 01:09:07;;;;;;;10.07;5.90;;;;;;;-2.44;96.50;99721.59;5097613;28;20494;-65
2022/03/10 01:11:35;;;;;;;9.47;5.60;;;;;;;-2.39;96.63;99719.88;5096464;28;20471;-64
2022/03/10 01:14:02;;;;;;;12.37;6.27;;;;;;;-2.37;96.55;99720.72;5096367;28;20471;-66
2022/03/10 01:16:29;;;;;;;11.87;5.90;;;;;;;-2.39;96.60;99714.88;5096112;28;20464;-59
2022/03/10 01:18:56;;;;;;;13.13;6.50;;;;;;;-2.30;96.38;99714.78;5097864;28;20483;-66
2022/03/10 01:21:23;;;;;;;11.13;6.47;;;;;;;-2.44;96.17;99721.59;5097211;28;20485;-58
2022/03/10 01:23:49;;;;;;;10.40;6.03;;;;;;;-2.36;96.13;99719.84;5096813;28;20459;-58
2022/03/10 01:26:16;;;;;;;11.40;6.47;;;;;;;-2.34;96.09;99718.16;5097393;28;20487;-66
2022/03/10 01:28:45;;;;;;;10.83;6.17;;;;;;;-2.31;95.60;99718.13;5097072;28;20805;-65
2022/03/10 01:31:12;;;;;;;14.07;5.93;;;;;;;-2.25;95.39;99718.06;5097325;28;20486;-66
2022/03/10 01:33:40;;;;;;;13.63;6.07;;;;;;;-2.31;94.96;99718.13;5097593;28;20452;-66
2022/03/10 01:36:07;;;;;;;14.70;6.40;;;;;;;-2.19;93.72;99718.00;5096292;28;20565;-59
2022/03/10 01:38:39;;;;;;;11.00;5.40;;;;;;;-2.25;93.29;99722.25;5097096;28;20526;-59
2022/03/10 01:41:06;;;;;;;11.80;6.07;;;;;;;-2.22;93.04;99718.03;5096376;28;20479;-66
2022/03/10 01:43:33;;;;;;;12.00;5.73;;;;;;;-2.24;92.84;99714.75;5096248;28;20456;-66
2022/03/10 01:46:03;;;;;;;9.57;5.07;;;;;;;-2.17;92.63;99725.53;5097440;28;20476;-59
2022/03/10 01:48:31;;;;;;;8.90;5.20;;;;;;;-2.18;92.86;99727.22;5095797;28;20443;-66
2022/03/10 01:50:58;;;;;;;10.53;5.67;;;;;;;-2.13;92.45;99730.47;5096092;28;20497;-66
2022/03/10 01:53:25;;;;;;;10.53;4.97;;;;;;;-2.13;91.95;99725.47;5096144;28;20454;-59
2022/03/10 01:55:52;;;;;;;10.13;5.17;;;;;;;-2.15;91.70;99724.66;5095413;28;20483;-59
2022/03/10 01:58:19;;;;;;;10.33;5.83;;;;;;;-2.10;91.34;99727.09;5095841;28;20484;-65
2022/03/10 02:00:46;;;;;;;9.30;4.83;;;;;;;-2.26;91.40;99730.63;5094247;28;20475;-59
2022/03/10 02:03:14;;;;;;;9.80;5.03;;;;;;;-2.11;90.80;99728.78;5095774;28;20467;-66
2022/03/10 02:05:41;;;;;;;9.60;5.10;;;;;;;-2.12;90.42;99729.66;5092927;28;20480;-59
2022/03/10 02:10:54;;;;;;;8.93;4.90;;;;;;;-2.15;90.18;99727.19;5096389;28;20467;-63
2022/03/10 02:13:21;;;;;;;8.00;4.90;;;;;;;-2.10;90.26;99725.44;5096895;28;20527;-66
2022/03/10 02:18:33;;;;;;;8.50;4.93;;;;;;;-2.14;89.28;99728.81;5097012;28;20498;-60
2022/03/10 02:21:00;;;;;;;7.63;4.90;;;;;;;-2.01;89.79;99721.16;5096552;28;20478;-58
2022/03/10 02:23:29;;;;;;;8.43;4.73;;;;;;;-1.99;89.42;99734.53;5096522;28;20455;-65
2022/03/10 02:25:59;;;;;;;10.50;5.20;;;;;;;-2.02;88.20;99734.56;5096079;28;20547;-58
2022/03/10 02:28:27;;;;;;;9.53;5.00;;;;;;;-2.08;87.91;99732.94;5096258;28;20509;-59
2022/03/10 02:30:54;;;;;;;8.53;5.00;;;;;;;-2.03;87.78;99740.41;5097257;28;20864;-59
2022/03/10 02:33:22;;;;;;;8.83;4.73;;;;;;;-2.14;87.29;99738.84;5093712;28;20456;-59
2022/03/10 02:35:50;;;;;;;8.90;5.17;;;;;;;-2.07;86.67;99737.91;5095715;28;20557;-58
2022/03/10 02:38:18;;;;;;;9.60;5.00;;;;;;;-2.18;85.96;99744.75;5096274;28;20488;-66
2022/03/10 02:40:46;;;;;;;8.40;4.50;;;;;;;-2.15;85.96;99738.84;5095916;28;20505;-58
2022/03/10 02:43:13;;;;;;;10.30;4.80;;;;;;;-2.10;85.52;99744.66;5095236;28;20451;-66
2022/03/10 02:45:40;;;;;;;10.40;4.20;;;;;;;-2.05;85.46;99745.44;5095976;28;20480;-59
2022/03/10 02:48:07;;;;;;;9.10;4.63;;;;;;;-2.09;84.66;99747.16;5097267;28;20442;-65
2022/03/10 02:50:34;;;;;;;7.80;4.80;;;;;;;-2.07;84.47;99752.94;5096531;28;20476;-61
2022/03/10 02:53:01;;;;;;;7.47;4.17;;;;;;;-2.02;83.46;99745.41;5095171;28;20451;-59
2022/03/10 02:55:29;;;;;;;6.43;4.03;;;;;;;-1.91;82.92;99747.81;5096496;28;20467;-64
2022/03/10 02:57:58;;;;;;;8.40;4.40;;;;;;;-1.96;83.07;99747.00;5096508;28;20976;-66
2022/03/10 03:00:26;;;;;;;6.87;3.80;;;;;;;-2.00;82.98;99747.91;5096637;28;20883;-59
2022/03/10 03:02:53;;;;;;;8.00;3.90;;;;;;;-2.09;81.28;99744.66;5095668;28;20452;-66
2022/03/10 03:05:20;;;;;;;6.37;3.90;;;;;;;-2.13;80.34;99748.00;5093917;28;20490;-66
2022/03/10 03:07:48;;;;;;;6.97;4.03;;;;;;;-1.98;77.30;99751.19;5097318;28;21020;-59
2022/03/10 03:10:15;;;;;;;5.73;3.50;;;;;;;-2.17;77.97;99746.38;5098860;28;20472;-59
2022/03/10 03:12:46;;;;;;;7.40;3.63;;;;;;;-2.10;76.61;99752.97;5098494;28;20451;-64
2022/03/10 03:15:15;;;;;;;9.73;3.87;;;;;;;-2.18;75.54;99758.91;5100211;28;21058;-58
2022/03/10 03:17:42;;;;;;;8.43;3.93;;;;;;;-2.17;77.34;99753.06;5100737;28;20444;-58
2022/03/10 03:20:14;;;;;;;6.30;3.83;;;;;;;-2.15;77.52;99754.72;5099929;28;20491;-58
2022/03/10 03:22:41;;;;;;;6.63;3.40;;;;;;;-2.27;78.02;99749.81;5100450;28;20479;-58
2022/03/10 03:25:10;;;;;;;5.17;2.93;;;;;;;-2.44;75.77;99756.66;5099183;28;20495;-66
2022/03/10 03:27:36;;;;;;;7.03;3.40;;;;;;;-2.43;75.39;99759.16;5098249;28;20462;-58
2022/03/10 03:30:05;;;;;;;7.13;3.27;;;;;;;-2.35;75.95;99751.59;5098296;28;20483;-58
2022/03/10 03:32:34;;;;;;;4.70;2.80;;;;;;;-2.46;77.29;99758.34;5098419;28;20444;-66
2022/03/10 03:35:01;;;;;;;8.27;3.10;;;;;;;-2.54;78.65;99759.22;5100100;28;20472;-66
2022/03/10 03:37:28;;;;;;;4.13;2.80;;;;;;;-2.71;80.17;99748.53;5098545;28;20455;-65
2022/03/10 03:39:55;;;;;;;5.93;3.10;;;;;;;-2.76;81.74;99751.06;5099305;28;20496;-66
2022/03/10 03:42:21;;;;;;;6.27;3.37;;;;;;;-2.69;82.09;99751.84;5100826;28;20906;-59
2022/03/10 03:44:48;;;;;;;7.10;3.30;;;;;;;-2.91;82.92;99751.16;5099548;28;20488;-66
2022/03/10 03:47:15;;;;;;;6.23;3.27;;;;;;;-2.96;84.00;99758.72;5099252;28;20452;-65
2022/03/10 03:49:43;;;;;;;6.63;2.80;;;;;;;-3.03;84.18;99767.09;5095428;28;20517;-66
2022/03/10 03:52:10;;;;;;;7.20;3.10;;;;;;;-3.08;84.30;99765.47;5095103;28;20448;-66
2022/03/10 03:54:38;;;;;;;6.40;3.30;;;;;;;-3.19;84.56;99763.03;5096617;28;20463;-58
2022/03/10 03:57:05;;;;;;;6.47;3.23;;;;;;;-3.02;85.78;99763.75;5095935;28;20535;-65
2022/03/10 03:59:32;;;;;;;6.00;3.00;;;;;;;-3.06;86.07;99762.09;5094893;28;20483;-58
2022/03/10 04:01:59;;;;;;;3.93;2.50;;;;;;;-3.20;84.86;99763.84;5098202;28;20455;-66
2022/03/10 04:04:26;;;;;;;6.13;3.47;;;;;;;-3.16;84.89;99765.50;5097061;28;20543;-58
2022/03/10 04:06:54;;;;;;;6.10;3.50;;;;;;;-3.15;85.75;99767.16;5098632;28;20563;-66
2022/03/10 04:09:21;;;;;;;6.33;3.60;;;;;;;-3.18;85.87;99762.19;5097262;28;20455;-66
2022/03/10 04:11:48;;;;;;;6.60;3.63;;;;;;;-3.12;86.37;99769.66;5095380;28;20855;-66
2022/03/10 04:14:15;;;;;;;8.13;3.47;;;;;;;-3.17;86.66;99773.88;5097282;28;20464;-66
2022/03/10 04:16:42;;;;;;;5.63;3.20;;;;;;;-3.30;87.52;99772.25;5097103;28;20482;-58
2022/03/10 04:19:09;;;;;;;7.00;3.60;;;;;;;-3.29;88.27;99773.91;5096798;28;20480;-66
2022/03/10 04:21:35;;;;;;;6.70;3.30;;;;;;;-3.33;88.42;99772.28;5097640;28;20482;-66
2022/03/10 04:24:04;;;;;;;10.43;3.83;;;;;;;-3.32;88.61;99776.41;5098033;28;20452;-58
2022/03/10 04:26:31;;;;;;;6.90;3.73;;;;;;;-3.24;88.68;99772.22;5095098;28;20476;-58
2022/03/10 04:28:58;;;;;;;7.97;3.70;;;;;;;-3.31;88.74;99775.59;5095268;28;20440;-66
2022/03/10 04:31:25;;;;;;;7.37;3.83;;;;;;;-3.28;88.70;99776.41;5096058;28;20474;-66
2022/03/10 04:33:52;;;;;;;9.00;4.30;;;;;;;-3.32;88.97;99778.91;5097462;28;20494;-63
2022/03/10 04:36:18;;;;;;;11.07;4.43;;;;;;;-3.38;89.88;99781.44;5097872;28;20470;-66
2022/03/10 04:38:45;;;;;;;7.03;3.83;;;;;;;-3.27;90.56;99787.25;5095393;28;20491;-65
2022/03/10 04:41:14;;;;;;;9.00;4.50;;;;;;;-3.18;90.26;99794.69;5097419;28;20483;-58
2022/03/10 04:43:43;;;;;;;6.83;4.20;;;;;;;-3.22;90.44;99795.56;5096017;28;21074;-58
2022/03/10 04:46:10;;;;;;;10.80;5.17;;;;;;;-3.22;90.72;99805.56;5096014;28;20484;-66
2022/03/10 04:48:37;;;;;;;8.53;4.67;;;;;;;-3.21;91.08;99810.53;5096327;28;20455;-58
2022/03/10 04:51:04;;;;;;;9.40;4.63;;;;;;;-3.22;91.13;99803.88;5095124;28;20503;-59
2022/03/10 04:53:31;;;;;;;9.00;4.40;;;;;;;-3.25;91.51;99808.06;5097149;28;20447;-59
2022/03/10 04:55:58;;;;;;;8.17;4.50;;;;;;;-3.31;92.36;99816.44;5095471;28;20494;-66
2022/03/10 04:58:28;;;;;;;8.97;4.53;;;;;;;-3.31;92.92;99815.59;5096021;28;20444;-66
2022/03/10 05:00:55;;;;;;;8.03;4.50;;;;;;;-3.49;93.96;99817.34;5097184;28;20501;-64
2022/03/10 05:03:22;;;;;;;9.23;4.93;;;;;;;-3.46;94.35;99817.31;5094952;28;20471;-65
2022/03/10 05:05:49;;;;;;;9.77;5.57;;;;;;;-3.51;95.28;99813.19;5094715;28;20855;-58
2022/03/10 05:08:17;;;;;;;16.60;7.53;;;;;;;-3.55;95.71;99817.38;5094229;28;20874;-66
2022/03/10 05:10:43;;;;;;;11.77;6.13;;;;;;;-3.58;95.85;99822.34;5094053;28;20480;-58
2022/03/10 05:13:10;;;;;;;10.87;4.77;;;;;;;-3.59;96.20;99825.69;5095093;28;20444;-65
2022/03/10 05:15:39;;;;;;;7.97;4.60;;;;;;;-3.46;96.27;99828.97;5096693;28;20480;-66
2022/03/10 05:18:06;;;;;;;6.70;4.07;;;;;;;-3.33;96.37;99830.59;5094251;28;20448;-66
2022/03/10 05:20:34;;;;;;;9.57;4.43;;;;;;;-3.21;95.85;99830.53;5095172;28;21016;-61
2022/03/10 05:23:03;;;;;;;6.30;3.77;;;;;;;-3.06;95.06;99837.13;5095807;28;20523;-58
2022/03/10 05:25:35;;;;;;;9.63;5.00;;;;;;;-3.11;95.29;99838.00;5094918;28;20503;-65
2022/03/10 05:28:04;;;;;;;5.87;3.77;;;;;;;-3.03;95.26;99849.63;5094794;28;20984;-66
2022/03/10 05:30:31;;;;;;;6.47;4.03;;;;;;;-3.00;95.27;99854.63;5094238;28;20474;-58
2022/03/10 05:32:59;;;;;;;6.67;3.97;;;;;;;-3.04;95.50;99855.47;5045315;28;1246599;-66
2022/03/10 05:35:29;;;;;;;8.67;4.37;;;;;;;-2.93;95.46;99862.94;5081318;28;20232;-66
2022/03/10 05:37:56;;;;;;;5.03;2.97;;;;;;;-2.88;95.82;99865.41;5095696;28;20814;-58
2022/03/10 05:40:27;;;;;;;7.00;4.07;;;;;;;-2.77;95.60;99862.00;5095933;28;20502;-58
2022/03/10 05:42:55;;;;;;;11.17;4.63;;;;;;;-2.80;95.59;99872.03;5078149;28;20436;-66
2022/03/10 05:45:22;;;;;;;8.43;4.37;;;;;;;-2.72;95.99;99866.19;5096664;28;20485;-66
2022/03/10 05:47:49;;;;;;;5.83;3.77;;;;;;;-2.79;96.19;99872.91;5097224;28;20444;-66
2022/03/10 05:50:20;;;;;;;5.23;3.67;;;;;;;-2.74;96.08;99883.69;5096405;28;20954;-66
2022/03/10 05:52:47;;;;;;;3.93;2.77;;;;;;;-2.75;96.50;99882.03;5096512;28;20821;-58
2022/03/10 05:55:14;;;;;;;7.87;4.43;;;;;;;-2.68;96.24;99886.16;5096232;28;20472;-58
2022/03/10 05:57:43;;;;;;;6.43;3.80;;;;;;;-2.49;95.85;99894.41;5096566;28;20456;-58
2022/03/10 06:00:14;;;;;;;8.73;4.47;;;;;;;-2.53;94.87;99901.09;5095600;28;20965;-58
2022/03/10 06:02:41;;;;;;;4.37;3.10;;;;;;;-2.42;95.11;99900.19;5097029;28;20443;-65
2022/03/10 06:05:08;;;;;;;6.17;3.90;;;;;;;-2.47;94.75;99911.91;5096242;28;20494;-58
2022/03/10 06:07:37;;;;;;;8.80;4.50;;;;;;;-2.57;95.70;99911.13;5097047;28;20890;-65
2022/03/10 06:10:05;;;;;;;8.03;4.07;;;;;;;-2.53;96.03;99913.63;5096458;28;20487;-58
2022/03/10 06:12:33;;;;;;;7.30;3.93;;;;;;;-2.51;95.98;99916.09;5098529;28;20448;-60
2022/03/10 06:15:02;;;;;;;7.80;4.17;;;;;;;-2.48;96.27;99920.25;5096388;28;20533;-66
2022/03/10 06:17:30;;;;;;;6.43;4.10;;;;;;;-2.46;96.55;99918.59;5096984;28;20965;-65
2022/03/10 06:19:57;;;;;;;7.10;4.13;;;;;;;-2.48;97.50;99925.28;5095816;28;21077;-58
2022/03/10 06:22:25;;;;;;;4.80;2.77;;;;;;;-2.40;97.72;99923.56;5097105;28;20463;-66
2022/03/10 06:24:55;;;;;;;7.50;4.17;;;;;;;-2.46;97.69;99924.44;5095142;28;21023;-58
2022/03/10 06:27:23;;;;;;;5.47;3.47;;;;;;;-2.53;98.70;99938.66;5097006;28;20452;-65
2022/03/10 06:29:51;;;;;;;5.10;3.33;;;;;;;-2.46;99.34;99934.44;5095980;28;21069;-58
2022/03/10 06:32:19;;;;;;;7.17;3.93;;;;;;;-2.46;99.90;99938.63;5096690;28;20455;-65
2022/03/10 06:34:46;;;;;;;7.20;4.20;;;;;;;-2.49;100.00;99943.66;5098406;28;20474;-58
2022/03/10 06:37:14;;;;;;;7.50;4.20;;;;;;;-2.51;100.00;99946.97;5095567;28;20460;-58
2022/03/10 06:39:41;;;;;;;9.00;4.20;;;;;;;-2.53;100.00;99956.19;5095875;28;20483;-58
2022/03/10 06:42:10;;;;;;;6.90;3.40;;;;;;;-2.45;100.00;99955.28;5095296;28;20455;-66
2022/03/10 06:44:38;;;;;;;6.00;3.77;;;;;;;-2.52;100.00;99960.34;5096119;28;20452;-58
2022/03/10 06:47:06;;;;;;;9.70;5.07;;;;;;;-2.53;100.00;99963.69;5095358;28;20457;-66
2022/03/10 06:49:33;;;;;;;7.37;3.37;;;;;;;-2.49;100.00;99962.00;5098414;28;20464;-60
2022/03/10 06:52:00;;;;;;;6.70;4.10;;;;;;;-2.59;100.00;99968.72;5096066;28;20452;-67
2022/03/10 06:54:27;;;;;;;5.80;3.57;;;;;;;-2.48;100.00;99970.34;5094261;28;20819;-67
2022/03/10 06:56:55;;;;;;;9.47;4.80;;;;;;;-2.39;100.00;99970.28;5094370;28;20448;-59
2022/03/10 06:59:24;;;;;;;9.13;4.93;;;;;;;-2.36;100.00;99975.28;5093584;28;20582;-67
2022/03/10 07:01:50;;;;;;;9.47;4.47;;;;;;;-2.30;100.00;99970.22;5096117;28;20479;-66
2022/03/10 07:04:17;;;;;;;7.77;4.63;;;;;;;-2.15;100.00;99970.16;5094110;28;20452;-66
2022/03/10 07:06:44;;;;;;;6.67;4.10;;;;;;;-2.09;100.00;99969.28;5093530;28;20466;-66
2022/03/10 07:09:12;;;;;;;7.43;4.60;;;;;;;-1.91;100.00;99973.34;5092225;28;21072;-67
2022/03/10 07:11:38;;;;;;;10.40;5.67;;;;;;;-1.77;100.00;99970.75;5096528;28;20456;-66
2022/03/10 07:14:05;;;;;;;8.67;5.00;;;;;;;-1.49;100.00;99976.34;5093512;28;20448;-66
2022/03/10 07:16:34;;;;;;;10.40;5.63;;;;;;;-1.14;100.00;99984.34;5093616;28;20491;-66
2022/03/10 07:19:01;;;;;;;9.83;5.70;;;;;;;-0.25;99.73;99978.28;5095014;28;20459;-58
2022/03/10 07:21:28;;;;;;;9.80;5.57;;;;;;;0.47;94.41;99983.06;5095010;28;20498;-66
2022/03/10 07:23:55;;;;;;;8.27;5.37;;;;;;;0.63;91.49;99985.28;5094498;28;20444;-66
2022/03/10 07:26:22;;;;;;;10.27;5.53;;;;;;;0.78;89.17;99984.19;5094829;28;20290;-59
2022/03/10 07:28:50;;;;;;;9.77;5.27;;;;;;;0.87;87.89;99984.06;5092728;28;20202;-67
2022/03/10 07:31:17;;;;;;;8.20;4.53;;;;;;;0.83;87.87;99994.19;5094333;28;20218;-58
2022/03/10 07:33:45;;;;;;;8.10;4.57;;;;;;;0.45;87.71;99990.66;5094349;28;20237;-59
2022/03/10 07:36:12;;;;;;;8.67;4.20;;;;;;;0.40;87.53;99987.38;5093518;28;20225;-59
2022/03/10 07:38:39;;;;;;;6.97;4.30;;;;;;;0.28;87.42;99992.59;5094525;28;20255;-67
2022/03/10 07:41:06;;;;;;;7.17;4.40;;;;;;;0.12;88.57;99981.97;5093579;28;20726;-67
2022/03/10 07:43:33;;;;;;;6.60;4.73;;;;;;;0.29;88.16;99989.22;5093892;28;20474;-67
2022/03/10 07:46:04;;;;;;;8.90;4.77;;;;;;;0.42;87.05;99990.69;5096864;28;20221;-67
2022/03/10 07:48:32;;;;;;;7.20;4.90;;;;;;;0.45;85.86;99996.50;5094969;28;20228;-59
2022/03/10 07:51:03;;;;;;;8.20;4.80;;;;;;;0.55;86.79;99987.09;5095180;28;20248;-59
2022/03/10 07:53:30;;;;;;;7.67;4.33;;;;;;;0.64;85.65;100002.06;5095729;28;20207;-67
2022/03/10 07:55:58;;;;;;;7.00;4.30;;;;;;;0.74;85.09;99991.84;5098372;28;20234;-59
2022/03/10 07:58:25;;;;;;;7.60;4.27;;;;;;;0.98;84.19;99993.91;5098867;28;20741;-65
2022/03/10 08:00:54;;;;;;;12.67;4.60;;;;;;;1.48;82.80;99999.66;5098575;28;20232;-68
2022/03/10 08:03:22;;;;;;;5.43;3.60;;;;;;;2.24;78.61;99999.69;5096897;28;20212;-59
2022/03/10 08:05:50;;;;;;;7.40;4.27;;;;;;;2.52;73.32;99993.13;5097653;28;20226;-67
2022/03/10 08:08:19;;;;;;;7.20;4.00;;;;;;;2.98;73.63;99997.00;5096780;28;20239;-67
2022/03/10 08:10:47;;;;;;;6.90;4.20;;;;;;;3.44;74.72;99995.75;5100655;28;20312;-59
2022/03/10 08:13:14;;;;;;;7.67;4.40;;;;;;;3.82;68.58;99995.47;5098437;28;20206;-59
2022/03/10 08:15:43;;;;;;;8.43;4.93;;;;;;;4.24;70.25;99999.25;5098094;28;20218;-60
2022/03/10 08:18:10;;;;;;;7.73;4.50;;;;;;;4.20;66.68;100002.75;5098143;28;20271;-59
2022/03/10 08:20:39;;;;;;;7.47;4.67;;;;;;;4.29;65.58;100003.28;5099837;28;20257;-66
2022/03/10 08:23:10;;;;;;;7.90;4.70;;;;;;;3.98;62.63;100002.56;5098123;28;20202;-66
2022/03/10 08:25:39;;;;;;;6.90;4.83;;;;;;;3.86;62.59;100004.59;5095091;28;20230;-58
2022/03/10 08:28:18;;;;;;;7.53;4.80;;;;;;;3.95;61.33;100007.72;5098405;28;20289;-57
2022/03/10 08:30:45;;;;;;;7.67;4.73;;;;;;;4.35;61.11;100012.38;5098646;28;20592;-66
2022/03/10 08:33:12;;;;;;;7.90;4.90;;;;;;;3.67;61.67;100003.50;5097380;28;20213;-58
2022/03/10 08:35:40;;;;;;;9.20;4.80;;;;;;;3.68;63.48;100002.63;5097809;28;20233;-64
2022/03/10 08:38:07;;;;;;;7.33;4.70;;;;;;;3.90;64.06;100001.97;5098354;28;20603;-67
2022/03/10 08:40:35;;;;;;;7.93;5.03;;;;;;;3.81;60.84;100005.59;5097448;28;20252;-60
2022/03/10 08:43:05;;;;;;;7.40;4.70;;;;;;;3.82;63.32;99998.00;5097816;28;20285;-67
2022/03/10 08:45:33;;;;;;;7.43;4.70;;;;;;;3.46;62.38;99999.06;5098691;28;20573;-58
2022/03/10 08:48:00;;;;;;;8.60;5.23;;;;;;;3.24;65.93;99998.84;5096795;28;20206;-58
2022/03/10 08:50:26;;;;;;;7.93;4.93;;;;;;;3.27;66.37;99998.75;5096474;28;20229;-66
2022/03/10 08:52:55;;;;;;;7.50;4.87;;;;;;;2.45;66.08;99993.28;5097932;28;20201;-65
2022/03/10 08:55:23;;;;;;;8.23;4.87;;;;;;;2.28;68.73;99995.38;5098456;28;20222;-67
2022/03/10 08:57:51;;;;;;;7.67;5.00;;;;;;;2.13;71.09;99996.56;5096475;28;20212;-66
2022/03/10 09:00:21;;;;;;;9.07;5.37;;;;;;;2.03;72.39;99995.13;5097825;28;20238;-58
2022/03/10 09:02:48;;;;;;;7.93;5.10;;;;;;;1.93;71.05;99988.63;5098880;28;20209;-65
2022/03/10 09:05:14;;;;;;;9.23;5.50;;;;;;;1.58;70.04;99996.09;5097255;28;20229;-66
2022/03/10 09:07:41;;;;;;;8.23;4.90;;;;;;;1.50;72.04;99995.41;5096773;28;20206;-67
2022/03/10 09:10:09;;;;;;;7.07;4.70;;;;;;;1.74;73.57;99990.72;5095983;28;20282;-66
2022/03/10 09:12:37;;;;;;;10.67;4.73;;;;;;;1.59;70.14;100001.94;5096394;28;20202;-66
2022/03/10 09:15:04;;;;;;;8.17;5.00;;;;;;;1.62;72.45;99993.50;5096479;28;20218;-61
2022/03/10 09:17:32;;;;;;;8.60;4.60;;;;;;;2.39;73.08;99998.50;5098921;28;20652;-66
2022/03/10 09:19:59;;;;;;;7.47;4.97;;;;;;;2.69;69.30;100001.13;5097570;28;20237;-66
2022/03/10 09:22:26;;;;;;;8.30;5.33;;;;;;;2.60;68.78;100001.34;5097150;28;20675;-58
2022/03/10 09:24:53;;;;;;;8.17;5.40;;;;;;;2.21;68.87;99998.91;5094384;28;20287;-66
2022/03/10 09:27:20;;;;;;;5.70;3.87;;;;;;;1.95;68.69;100005.41;5097793;28;20209;-58
2022/03/10 09:29:47;;;;;;;8.77;5.03;;;;;;;2.00;68.93;100005.28;5098510;28;20809;-66
2022/03/10 09:32:14;;;;;;;10.07;4.73;;;;;;;2.33;68.53;100002.81;5097660;28;20596;-58
2022/03/10 09:34:43;;;;;;;8.80;5.20;;;;;;;1.98;66.44;100007.84;5096012;28;20214;-66
2022/03/10 09:37:11;;;;;;;6.37;4.57;;;;;;;1.76;69.31;99996.56;5097674;28;20208;-66
2022/03/10 09:39:38;;;;;;;8.67;5.20;;;;;;;1.91;66.18;100002.97;5093921;28;20270;-66
2022/03/10 09:42:06;;;;;;;8.90;4.90;;;;;;;2.49;65.64;100015.06;5094585;28;20229;-66
2022/03/10 09:44:37;;;;;;;8.90;4.90;;;;;;;2.36;64.36;100013.69;5094064;28;20212;-66
2022/03/10 09:47:06;;;;;;;6.37;4.47;;;;;;;1.76;65.77;100016.72;5092752;28;20202;-66
2022/03/10 09:49:34;;;;;;;10.87;5.57;;;;;;;1.71;66.44;100018.50;5094517;28;20213;-58
2022/03/10 09:52:03;;;;;;;7.07;4.83;;;;;;;1.74;66.66;100013.41;5095331;28;20671;-59
2022/03/10 09:54:31;;;;;;;6.87;4.37;;;;;;;1.94;64.87;100015.50;5096397;28;20201;-66
2022/03/10 09:56:58;;;;;;;11.17;5.00;;;;;;;2.47;66.50;100024.38;5097847;28;20593;-66
2022/03/10 09:59:30;;;;;;;7.63;4.40;;;;;;;2.84;65.97;100015.03;5097462;28;20585;-59
2022/03/10 10:01:57;;;;;;;9.23;5.40;;;;;;;3.08;65.30;100008.50;5096940;28;20226;-66
2022/03/10 10:04:27;;;;;;;8.63;5.00;;;;;;;3.05;62.37;100018.69;5098859;28;20202;-66
2022/03/10 10:07:04;;;;;;;6.30;4.10;;;;;;;2.76;59.02;100017.75;5096298;28;20206;-62
2022/03/10 10:09:42;;;;;;;6.43;4.47;;;;;;;2.62;62.03;100022.34;5097422;28;20209;-58
2022/03/10 10:12:10;;;;;;;4.73;3.73;;;;;;;2.30;60.89;100018.91;5096489;28;20270;-66
2022/03/10 10:14:39;;;;;;;6.37;4.30;;;;;;;2.13;64.21;100026.03;5096931;28;20209;-58
2022/03/10 10:17:06;;;;;;;6.63;4.43;;;;;;;2.18;65.30;100020.00;5096903;28;20675;-62
2022/03/10 10:19:34;;;;;;;5.50;3.70;;;;;;;2.06;64.14;100020.25;5096768;28;20288;-66
2022/03/10 10:22:14;;;;;;;6.80;4.07;;;;;;;1.98;64.92;100022.16;5096369;28;20254;-66
2022/03/10 10:24:41;;;;;;;8.83;5.23;;;;;;;1.93;66.82;100019.72;5098189;28;20202;-66
2022/03/10 10:27:18;;;;;;;7.43;4.60;;;;;;;2.15;65.80;100019.22;5096422;28;20213;-66
2022/03/10 10:29:50;;;;;;;8.23;4.07;;;;;;;2.19;67.59;100020.84;5096271;28;20750;-66
2022/03/10 10:32:33;;;;;;;7.10;4.70;;;;;;;2.35;67.54;100019.59;5096907;28;20288;-66
2022/03/10 10:35:06;;;;;;;8.73;4.90;;;;;;;2.20;67.63;100014.91;5096128;28;20221;-58
2022/03/10 10:37:36;;;;;;;8.10;5.10;;;;;;;2.29;65.07;100014.69;5094309;28;20212;-58
2022/03/10 10:40:05;;;;;;;8.50;5.07;;;;;;;2.23;66.41;100012.31;5095793;28;20232;-58
2022/03/10 10:42:35;;;;;;;7.60;4.97;;;;;;;1.98;65.20;100015.41;5096048;28;20297;-58
2022/03/10 10:45:23;;;;;;;7.90;4.43;;;;;;;1.90;65.61;100014.75;5095258;28;20221;-58
2022/03/10 10:48:03;;;;;;;9.17;5.20;;;;;;;1.95;65.41;100018.00;5095317;28;20304;-58
2022/03/10 10:50:31;;;;;;;9.00;5.60;;;;;;;1.90;65.63;100012.22;5096943;28;20233;-66
2022/03/10 10:52:59;;;;;;;10.37;6.20;;;;;;;2.01;68.39;100009.47;5095443;28;20345;-59
2022/03/10 10:55:32;;;;;;;10.03;5.80;;;;;;;1.92;66.82;100013.03;5096328;28;20217;-58
2022/03/10 10:58:06;;;;;;;8.97;4.77;;;;;;;1.97;66.59;100005.34;5096571;28;20202;-66
2022/03/10 11:00:43;;;;;;;10.97;8.17;;;;;;;2.31;69.66;100004.59;5095821;28;20230;-66
2022/03/10 11:03:26;;;;;;;8.70;5.37;;;;;;;2.35;64.87;100009.50;5095026;28;20255;-67
2022/03/10 11:05:55;;;;;;;10.23;5.57;;;;;;;2.14;66.92;100007.50;5092061;28;20623;-58
2022/03/10 11:08:26;;;;;;;6.33;4.43;;;;;;;1.92;64.95;100002.09;5095573;28;20205;-66
2022/03/10 11:10:53;;;;;;;7.63;4.93;;;;;;;1.75;67.77;99997.44;5095051;28;20229;-58
2022/03/10 11:13:21;;;;;;;6.47;4.03;;;;;;;1.86;66.19;100004.75;5096416;28;20212;-58
2022/03/10 11:15:48;;;;;;;7.40;4.13;;;;;;;2.17;65.43;100002.38;5097964;28;20221;-58
2022/03/10 11:18:15;;;;;;;8.73;5.40;;;;;;;2.65;67.89;100004.59;5094887;28;20206;-58
2022/03/10 11:20:46;;;;;;;7.03;4.70;;;;;;;2.63;66.11;100007.16;5092810;28;20320;-63
2022/03/10 11:23:23;;;;;;;7.93;5.37;;;;;;;2.76;66.56;99997.56;5096202;28;20192;-58
2022/03/10 11:26:02;;;;;;;8.07;4.57;;;;;;;2.62;64.50;100000.44;5095135;28;20337;-68
2022/03/10 11:28:31;;;;;;;7.77;4.80;;;;;;;3.15;63.66;99989.81;5097319;28;20215;-66
2022/03/10 11:31:00;;;;;;;8.03;5.13;;;;;;;3.75;62.46;99986.41;5097961;28;20230;-66
2022/03/10 11:33:31;;;;;;;8.33;5.43;;;;;;;4.01;58.88;99992.38;5099312;28;20264;-66
2022/03/10 11:35:58;;;;;;;7.77;5.03;;;;;;;4.15;59.07;99985.19;5099914;28;20663;-66
2022/03/10 11:38:50;;;;;;;7.40;4.57;;;;;;;4.34;56.79;99982.06;5099187;28;20301;-57
2022/03/10 11:41:19;;;;;;;7.13;4.53;;;;;;;4.16;55.89;99981.78;5096692;28;20435;-57